createdAt,value
2022-10-06T00:00:44.736Z,0.87
2022-10-06T00:01:31.754Z,1.02
2022-10-06T00:02:21.891Z,0.81
2022-10-06T00:03:08.562Z,0.81
2022-10-06T00:03:54.876Z,0.88
2022-10-06T00:04:41.414Z,0.79
2022-10-06T00:05:28.146Z,0.74
2022-10-06T00:06:15.679Z,0.86
2022-10-06T00:07:02.027Z,0.81
2022-10-06T00:07:48.601Z,1.03
2022-10-06T00:08:36.742Z,0.88
2022-10-06T00:09:23.049Z,0.99
2022-10-06T00:10:09.843Z,0.91
2022-10-06T00:10:56.881Z,1.14
2022-10-06T00:11:44.539Z,1.03
2022-10-06T00:12:38.099Z,1.06
2022-10-06T00:13:25.160Z,0.89
2022-10-06T00:14:11.479Z,1.07
2022-10-06T00:14:57.777Z,1.00
2022-10-06T00:15:44.307Z,1.14
2022-10-06T00:16:30.733Z,1.06
2022-10-06T00:17:17.079Z,0.91
2022-10-06T00:18:03.587Z,0.98
2022-10-06T00:18:50.135Z,1.04
2022-10-06T00:19:36.475Z,1.04
2022-10-06T00:20:23.387Z,0.91
2022-10-06T00:21:10.301Z,0.96
2022-10-06T00:21:56.689Z,1.01
2022-10-06T00:22:45.194Z,1.24
2022-10-06T00:23:31.773Z,1.09
2022-10-06T00:24:18.528Z,1.02
2022-10-06T00:25:05.204Z,0.91
2022-10-06T00:25:52.011Z,1.15
2022-10-06T00:26:38.396Z,1.03
2022-10-06T00:27:24.994Z,1.11
2022-10-06T00:28:11.353Z,1.10
2022-10-06T00:28:58.703Z,1.02
2022-10-06T00:29:45.125Z,1.08
2022-10-06T00:30:31.642Z,1.18
2022-10-06T00:31:19.439Z,1.09
2022-10-06T00:32:06.492Z,1.13
2022-10-06T00:33:00.866Z,0.89
2022-10-06T00:33:49.280Z,1.19
2022-10-06T00:34:38.894Z,1.15
2022-10-06T00:35:26.466Z,1.03
2022-10-06T00:36:12.965Z,1.00
2022-10-06T00:36:59.307Z,1.14
2022-10-06T00:37:45.767Z,1.19
2022-10-06T00:38:32.685Z,1.07
2022-10-06T00:39:20.263Z,1.02
2022-10-06T00:40:09.647Z,1.12
2022-10-06T00:40:56.062Z,1.13
2022-10-06T00:41:42.379Z,0.84
2022-10-06T00:42:30.750Z,1.04
2022-10-06T00:43:35.523Z,1.10
2022-10-06T00:44:21.869Z,1.01
2022-10-06T00:45:08.539Z,1.20
2022-10-06T00:45:55.068Z,1.04
2022-10-06T00:46:52.286Z,1.27
2022-10-06T00:47:38.777Z,1.18
2022-10-06T00:48:27.589Z,0.97
2022-10-06T00:49:21.074Z,1.14
2022-10-06T00:50:11.621Z,1.01
2022-10-06T00:50:59.316Z,1.13
2022-10-06T00:51:48.992Z,1.12
2022-10-06T00:52:35.686Z,1.06
2022-10-06T00:53:23.405Z,1.14
2022-10-06T00:54:10.560Z,1.25
2022-10-06T00:55:00.101Z,1.04
2022-10-06T00:55:46.644Z,0.99
2022-10-06T00:56:33.577Z,0.96
2022-10-06T00:57:20.462Z,1.01
2022-10-06T00:58:07.686Z,0.96
2022-10-06T00:58:54.008Z,0.85
2022-10-06T00:59:40.957Z,0.97
2022-10-06T01:00:28.660Z,1.21
2022-10-06T01:01:15.264Z,1.05
2022-10-06T01:02:01.849Z,0.97
2022-10-06T01:02:52.319Z,1.08
2022-10-06T01:03:42.219Z,1.28
2022-10-06T01:04:34.806Z,1.35
2022-10-06T01:05:27.088Z,1.24
2022-10-06T01:06:13.427Z,0.94
2022-10-06T01:07:00.250Z,1.08
2022-10-06T01:07:46.860Z,1.06
2022-10-06T01:08:34.020Z,1.04
2022-10-06T01:09:22.401Z,1.17
2022-10-06T01:10:09.215Z,1.22
2022-10-06T01:10:55.856Z,1.03
2022-10-06T01:11:42.477Z,0.97
2022-10-06T01:12:30.811Z,1.24
2022-10-06T01:13:18.496Z,1.26
2022-10-06T01:14:05.049Z,1.17
2022-10-06T01:14:52.226Z,1.11
2022-10-06T01:15:42.873Z,1.20
2022-10-06T01:16:30.904Z,1.36
2022-10-06T01:17:25.102Z,1.41
2022-10-06T01:18:15.058Z,1.50
2022-10-06T01:19:04.533Z,1.43
2022-10-06T01:19:54.731Z,1.40
2022-10-06T01:20:47.060Z,1.51
2022-10-06T01:21:44.408Z,1.40
2022-10-06T01:22:34.359Z,1.44
2022-10-06T01:23:21.462Z,1.61
2022-10-06T01:24:08.065Z,1.66
2022-10-06T01:24:54.826Z,1.53
2022-10-06T01:25:41.446Z,1.51
2022-10-06T01:26:30.203Z,1.54
2022-10-06T01:27:18.526Z,1.49
2022-10-06T01:28:07.638Z,1.60
2022-10-06T01:28:54.522Z,1.57
2022-10-06T01:29:41.456Z,1.54
2022-10-06T01:30:30.424Z,1.52
2022-10-06T01:31:17.819Z,1.33
2022-10-06T01:32:04.649Z,1.45
2022-10-06T01:32:51.219Z,1.81
2022-10-06T01:33:37.613Z,1.62
2022-10-06T01:34:23.988Z,1.52
2022-10-06T01:35:11.483Z,1.40
2022-10-06T01:35:59.209Z,1.67
2022-10-06T01:36:46.479Z,1.52
2022-10-06T01:37:33.137Z,1.58
2022-10-06T01:38:20.198Z,1.26
2022-10-06T01:39:09.119Z,1.65
2022-10-06T01:39:57.301Z,1.36
2022-10-06T01:40:45.004Z,1.35
2022-10-06T01:41:33.235Z,1.46
2022-10-06T01:42:20.744Z,1.41
2022-10-06T01:43:07.216Z,1.50
2022-10-06T01:43:53.688Z,1.60
2022-10-06T01:44:40.234Z,1.41
2022-10-06T01:45:26.640Z,1.50
2022-10-06T01:46:13.179Z,1.52
2022-10-06T01:47:00.806Z,1.35
2022-10-06T01:47:47.964Z,1.35
2022-10-06T01:48:35.941Z,1.15
2022-10-06T01:49:23.857Z,1.30
2022-10-06T01:50:11.704Z,1.31
2022-10-06T01:50:58.124Z,1.57
2022-10-06T01:51:45.613Z,1.36
2022-10-06T01:52:31.970Z,1.39
2022-10-06T01:53:19.346Z,1.62
2022-10-06T01:54:05.805Z,1.44
2022-10-06T01:54:53.847Z,1.64
2022-10-06T01:55:40.899Z,1.50
2022-10-06T01:56:27.250Z,1.47
2022-10-06T01:57:13.597Z,1.42
2022-10-06T01:57:59.984Z,1.69
2022-10-06T01:58:46.792Z,1.76
2022-10-06T01:59:33.187Z,1.43
2022-10-06T02:00:20.439Z,1.29
2022-10-06T02:01:09.150Z,1.40
2022-10-06T02:01:56.076Z,1.48
2022-10-06T02:02:43.169Z,1.42
2022-10-06T02:03:29.689Z,1.29
2022-10-06T02:04:16.196Z,1.55
2022-10-06T02:05:03.484Z,1.56
2022-10-06T02:05:50.463Z,1.55
2022-10-06T02:06:36.847Z,1.80
2022-10-06T02:07:23.546Z,1.61
2022-10-06T02:08:10.499Z,1.55
2022-10-06T02:08:57.012Z,1.77
2022-10-06T02:09:43.426Z,1.74
2022-10-06T02:10:30.074Z,1.48
2022-10-06T02:11:19.418Z,1.56
2022-10-06T02:12:07.695Z,1.50
2022-10-06T02:12:58.498Z,1.68
2022-10-06T02:13:47.898Z,1.89
2022-10-06T02:14:34.883Z,1.81
2022-10-06T02:15:21.286Z,1.66
2022-10-06T02:16:08.793Z,1.48
2022-10-06T02:16:55.734Z,1.92
2022-10-06T02:17:42.619Z,1.62
2022-10-06T02:18:29.838Z,1.68
2022-10-06T02:19:16.562Z,1.72
2022-10-06T02:20:03.221Z,1.80
2022-10-06T02:20:49.776Z,1.94
2022-10-06T02:21:36.127Z,1.82
2022-10-06T02:22:22.573Z,1.60
2022-10-06T02:23:09.307Z,1.95
2022-10-06T02:23:55.981Z,1.79
2022-10-06T02:24:42.496Z,1.65
2022-10-06T02:25:29.063Z,1.64
2022-10-06T02:26:17.460Z,1.61
2022-10-06T02:27:06.841Z,1.72
2022-10-06T02:27:54.909Z,1.78
2022-10-06T02:28:41.511Z,1.67
2022-10-06T02:29:31.128Z,2.03
2022-10-06T02:30:17.550Z,1.64
2022-10-06T02:31:08.391Z,1.49
2022-10-06T02:31:55.899Z,2.13
2022-10-06T02:32:42.743Z,1.94
2022-10-06T02:33:30.032Z,1.98
2022-10-06T02:34:16.518Z,2.11
2022-10-06T02:35:03.740Z,1.93
2022-10-06T02:35:54.614Z,1.73
2022-10-06T02:36:41.223Z,1.79
2022-10-06T02:37:27.803Z,1.60
2022-10-06T02:38:14.124Z,1.92
2022-10-06T02:39:00.477Z,1.97
2022-10-06T02:39:47.587Z,2.31
2022-10-06T02:40:33.969Z,2.18
2022-10-06T02:41:21.715Z,2.05
2022-10-06T02:42:08.078Z,1.67
2022-10-06T02:42:56.967Z,2.25
2022-10-06T02:43:43.301Z,1.79
2022-10-06T02:44:29.628Z,2.05
2022-10-06T02:45:16.191Z,2.14
2022-10-06T02:46:06.136Z,2.19
2022-10-06T02:46:53.632Z,2.07
2022-10-06T02:47:40.921Z,2.11
2022-10-06T02:48:28.941Z,2.16
2022-10-06T02:49:16.111Z,1.89
2022-10-06T02:50:05.197Z,2.04
2022-10-06T02:50:55.104Z,1.83
2022-10-06T02:51:41.517Z,2.10
2022-10-06T02:52:35.039Z,1.96
2022-10-06T02:53:21.486Z,1.97
2022-10-06T02:54:08.667Z,2.03
2022-10-06T02:54:55.229Z,1.96
2022-10-06T02:55:41.547Z,2.12
2022-10-06T02:56:27.963Z,2.22
2022-10-06T02:57:15.422Z,2.22
2022-10-06T02:58:03.050Z,2.24
2022-10-06T02:58:50.580Z,2.21
2022-10-06T02:59:42.907Z,1.93
2022-10-06T03:00:29.345Z,2.11
2022-10-06T03:01:17.684Z,2.15
2022-10-06T03:02:04.343Z,2.25
2022-10-06T03:02:50.867Z,2.23
2022-10-06T03:03:37.609Z,2.32
2022-10-06T03:04:24.111Z,2.32
2022-10-06T03:05:10.793Z,2.43
2022-10-06T03:06:23.191Z,2.53
2022-10-06T03:07:15.686Z,2.57
2022-10-06T03:08:02.211Z,2.48
2022-10-06T03:08:52.756Z,2.52
2022-10-06T03:09:39.151Z,2.26
2022-10-06T03:10:27.581Z,2.50
2022-10-06T03:11:14.954Z,2.50
2022-10-06T03:12:01.382Z,2.55
2022-10-06T03:12:54.157Z,2.81
2022-10-06T03:13:41.119Z,2.60
2022-10-06T03:14:27.514Z,2.44
2022-10-06T03:15:13.944Z,2.69
2022-10-06T03:16:01.146Z,2.33
2022-10-06T03:16:47.920Z,2.51
2022-10-06T03:17:40.156Z,2.52
2022-10-06T03:18:26.990Z,2.45
2022-10-06T03:19:14.573Z,2.62
2022-10-06T03:20:04.475Z,2.62
2022-10-06T03:20:53.898Z,2.32
2022-10-06T03:21:42.517Z,2.38
2022-10-06T03:22:28.852Z,2.73
2022-10-06T03:23:16.987Z,2.71
2022-10-06T03:24:03.676Z,2.87
2022-10-06T03:24:50.057Z,2.60
2022-10-06T03:25:36.423Z,2.58
2022-10-06T03:26:27.795Z,2.40
2022-10-06T03:27:14.212Z,2.13
2022-10-06T03:28:01.265Z,2.27
2022-10-06T03:28:48.480Z,2.63
2022-10-06T03:29:34.977Z,2.77
2022-10-06T03:30:22.877Z,2.66
2022-10-06T03:31:09.410Z,2.56
2022-10-06T03:31:55.784Z,2.69
2022-10-06T03:32:42.100Z,2.90
2022-10-06T03:33:30.359Z,2.57
2022-10-06T03:34:16.779Z,2.71
2022-10-06T03:35:04.410Z,2.75
2022-10-06T03:35:58.307Z,2.63
2022-10-06T03:36:44.768Z,2.59
2022-10-06T03:37:31.760Z,2.90
2022-10-06T03:38:18.793Z,2.62
2022-10-06T03:39:06.137Z,2.67
2022-10-06T03:39:53.583Z,2.63
2022-10-06T03:40:39.932Z,2.70
2022-10-06T03:41:28.450Z,2.59
2022-10-06T03:42:15.138Z,2.82
2022-10-06T03:43:01.936Z,2.70
2022-10-06T03:43:49.812Z,2.51
2022-10-06T03:44:36.757Z,2.71
2022-10-06T03:45:23.359Z,2.51
2022-10-06T03:46:11.240Z,2.37
2022-10-06T03:46:57.758Z,2.30
2022-10-06T03:47:44.369Z,2.61
2022-10-06T03:48:33.220Z,2.74
2022-10-06T03:49:20.396Z,2.82
2022-10-06T03:50:07.347Z,2.60
2022-10-06T03:50:55.125Z,2.34
2022-10-06T03:51:42.231Z,2.70
2022-10-06T03:52:33.131Z,2.81
2022-10-06T03:53:25.360Z,2.75
2022-10-06T03:54:12.633Z,2.89
2022-10-06T03:55:01.770Z,2.42
2022-10-06T03:55:48.110Z,2.55
2022-10-06T03:56:36.138Z,2.42
2022-10-06T03:57:23.324Z,2.09
2022-10-06T03:58:10.237Z,2.39
2022-10-06T03:59:01.109Z,2.60
2022-10-06T03:59:48.258Z,2.82
2022-10-06T04:00:35.611Z,2.84
2022-10-06T04:01:26.244Z,2.67
2022-10-06T04:02:13.510Z,2.73
2022-10-06T04:03:00.946Z,2.77
2022-10-06T04:03:47.935Z,2.84
2022-10-06T04:04:35.024Z,2.73
2022-10-06T04:05:26.429Z,2.44
2022-10-06T04:06:17.367Z,2.65
2022-10-06T04:07:04.607Z,2.72
2022-10-06T04:07:51.253Z,2.47
2022-10-06T04:08:38.182Z,2.64
2022-10-06T04:09:24.613Z,2.91
2022-10-06T04:10:11.326Z,2.84
2022-10-06T04:11:08.738Z,2.97
2022-10-06T04:11:55.259Z,2.68
2022-10-06T04:12:41.914Z,2.75
2022-10-06T04:13:28.467Z,2.90
2022-10-06T04:14:16.000Z,2.66
2022-10-06T04:15:03.000Z,2.65
2022-10-06T04:15:49.614Z,2.96
2022-10-06T04:16:38.200Z,2.82
2022-10-06T04:17:25.808Z,3.00
2022-10-06T04:18:13.443Z,3.16
2022-10-06T04:19:01.388Z,3.05
2022-10-06T04:19:47.708Z,3.17
2022-10-06T04:20:34.062Z,2.57
2022-10-06T04:21:20.695Z,2.75
2022-10-06T04:22:07.292Z,3.02
2022-10-06T04:22:54.932Z,2.95
2022-10-06T04:23:41.523Z,3.25
2022-10-06T04:24:28.262Z,3.17
2022-10-06T04:25:16.750Z,2.89
2022-10-06T04:26:06.331Z,3.19
2022-10-06T04:26:52.823Z,3.30
2022-10-06T04:27:40.490Z,3.03
2022-10-06T04:28:31.123Z,3.31
2022-10-06T04:29:17.900Z,3.03
2022-10-06T04:30:07.717Z,3.30
2022-10-06T04:30:57.546Z,3.24
2022-10-06T04:31:44.205Z,3.38
2022-10-06T04:32:36.978Z,3.19
2022-10-06T04:33:23.732Z,3.25
2022-10-06T04:34:12.271Z,3.59
2022-10-06T04:34:59.712Z,3.45
2022-10-06T04:35:47.344Z,3.06
2022-10-06T04:36:36.093Z,2.62
2022-10-06T04:37:22.430Z,3.12
2022-10-06T04:38:09.331Z,3.17
2022-10-06T04:38:58.259Z,3.79
2022-10-06T04:39:46.615Z,3.24
2022-10-06T04:40:33.233Z,2.87
2022-10-06T04:41:20.139Z,3.21
2022-10-06T04:42:07.316Z,3.15
2022-10-06T04:42:53.734Z,3.03
2022-10-06T04:43:40.338Z,3.24
2022-10-06T04:44:26.669Z,3.21
2022-10-06T04:45:15.155Z,2.93
2022-10-06T04:46:18.086Z,2.85
2022-10-06T04:47:09.897Z,3.00
2022-10-06T04:47:56.325Z,3.09
2022-10-06T04:48:42.890Z,2.81
2022-10-06T04:49:29.718Z,2.51
2022-10-06T04:50:16.730Z,2.76
2022-10-06T04:51:24.710Z,3.08
2022-10-06T04:52:11.099Z,2.88
2022-10-06T04:52:59.094Z,3.00
2022-10-06T04:53:49.146Z,3.08
2022-10-06T04:54:36.265Z,3.14
2022-10-06T04:55:24.297Z,2.99
2022-10-06T04:56:13.277Z,3.27
2022-10-06T04:57:00.087Z,3.25
2022-10-06T04:57:47.788Z,3.04
2022-10-06T04:58:35.737Z,3.27
2022-10-06T04:59:42.131Z,3.10
2022-10-06T05:00:29.495Z,2.79
2022-10-06T05:01:18.800Z,2.92
2022-10-06T05:02:06.875Z,3.21
2022-10-06T05:02:55.676Z,2.92
2022-10-06T05:03:43.306Z,3.10
2022-10-06T05:04:29.923Z,2.97
2022-10-06T05:05:16.375Z,2.98
2022-10-06T05:06:11.910Z,3.22
2022-10-06T05:06:58.686Z,3.33
2022-10-06T05:07:45.700Z,2.81
2022-10-06T05:08:33.591Z,2.82
2022-10-06T05:09:20.024Z,2.98
2022-10-06T05:10:12.116Z,3.08
2022-10-06T05:11:00.259Z,3.18
2022-10-06T05:11:46.648Z,3.44
2022-10-06T05:12:35.432Z,3.18
2022-10-06T05:13:22.828Z,3.53
2022-10-06T05:14:09.547Z,3.56
2022-10-06T05:14:59.633Z,3.77
2022-10-06T05:15:54.890Z,3.42
2022-10-06T05:16:42.875Z,3.80
2022-10-06T05:17:30.509Z,3.03
2022-10-06T05:18:16.910Z,3.43
2022-10-06T05:19:03.282Z,3.52
2022-10-06T05:19:51.349Z,3.85
2022-10-06T05:20:37.665Z,3.51
2022-10-06T05:21:26.004Z,3.62
2022-10-06T05:22:12.355Z,4.06
2022-10-06T05:22:59.316Z,3.72
2022-10-06T05:23:46.226Z,3.72
2022-10-06T05:24:32.746Z,3.80
2022-10-06T05:25:19.373Z,3.57
2022-10-06T05:26:06.426Z,3.50
2022-10-06T05:26:54.236Z,2.97
2022-10-06T05:27:42.965Z,3.66
2022-10-06T05:28:30.838Z,3.71
2022-10-06T05:29:18.343Z,2.99
2022-10-06T05:30:04.812Z,3.82
2022-10-06T05:30:59.274Z,3.92
2022-10-06T05:31:46.688Z,3.57
2022-10-06T05:32:36.226Z,3.31
2022-10-06T05:33:23.969Z,3.53
2022-10-06T05:34:10.532Z,3.32
2022-10-06T05:34:58.539Z,3.42
2022-10-06T05:35:54.914Z,3.44
2022-10-06T05:36:41.421Z,3.82
2022-10-06T05:37:31.360Z,3.56
2022-10-06T05:38:17.747Z,4.07
2022-10-06T05:39:05.121Z,3.72
2022-10-06T05:40:13.270Z,3.43
2022-10-06T05:41:04.650Z,3.67
2022-10-06T05:41:51.579Z,3.23
2022-10-06T05:42:38.367Z,3.25
2022-10-06T05:43:25.461Z,3.68
2022-10-06T05:44:12.518Z,3.52
2022-10-06T05:45:00.702Z,3.84
2022-10-06T05:45:57.687Z,3.83
2022-10-06T05:46:44.186Z,4.14
2022-10-06T05:47:30.618Z,4.15
2022-10-06T05:48:16.930Z,3.78
2022-10-06T05:49:04.695Z,4.53
2022-10-06T05:49:52.137Z,3.94
2022-10-06T05:50:38.422Z,4.18
2022-10-06T05:51:30.399Z,4.13
2022-10-06T05:52:18.865Z,3.79
2022-10-06T05:53:05.420Z,3.41
2022-10-06T05:53:51.774Z,3.85
2022-10-06T05:54:38.287Z,3.66
2022-10-06T05:55:27.384Z,3.62
2022-10-06T05:56:18.077Z,3.43
2022-10-06T05:57:04.434Z,3.67
2022-10-06T05:57:54.134Z,3.60
2022-10-06T05:58:41.928Z,3.88
2022-10-06T05:59:28.333Z,4.22
2022-10-06T06:00:15.782Z,3.75
2022-10-06T06:01:09.697Z,4.10
2022-10-06T06:01:56.255Z,3.78
2022-10-06T06:02:52.210Z,3.62
2022-10-06T06:03:41.885Z,3.93
2022-10-06T06:04:28.433Z,4.07
2022-10-06T06:05:16.572Z,3.80
2022-10-06T06:06:03.191Z,3.86
2022-10-06T06:06:49.750Z,3.87
2022-10-06T06:07:39.948Z,4.64
2022-10-06T06:08:26.760Z,4.52
2022-10-06T06:09:15.312Z,4.08
2022-10-06T06:10:02.755Z,4.02
2022-10-06T06:10:52.035Z,4.33
2022-10-06T06:11:43.577Z,4.34
2022-10-06T06:12:29.885Z,4.30
2022-10-06T06:13:35.671Z,4.75
2022-10-06T06:14:45.274Z,4.70
2022-10-06T06:16:12.194Z,3.89
2022-10-06T06:16:58.642Z,4.30
2022-10-06T06:17:44.983Z,3.68
2022-10-06T06:18:33.567Z,3.96
2022-10-06T06:19:20.077Z,3.44
2022-10-06T06:20:06.727Z,3.44
2022-10-06T06:21:00.353Z,3.65
2022-10-06T06:21:47.434Z,3.88
2022-10-06T06:22:35.695Z,3.65
2022-10-06T06:23:22.110Z,3.33
2022-10-06T06:24:09.001Z,3.72
2022-10-06T06:24:55.474Z,3.63
2022-10-06T06:25:45.214Z,3.67
2022-10-06T06:26:33.268Z,3.58
2022-10-06T06:27:20.254Z,3.77
2022-10-06T06:28:07.916Z,3.85
2022-10-06T06:28:56.377Z,3.78
2022-10-06T06:29:42.837Z,3.96
2022-10-06T06:30:29.263Z,3.70
2022-10-06T06:31:21.085Z,3.46
2022-10-06T06:32:09.533Z,3.96
2022-10-06T06:33:00.301Z,4.25
2022-10-06T06:33:48.166Z,4.03
2022-10-06T06:34:34.488Z,4.18
2022-10-06T06:35:20.818Z,3.94
2022-10-06T06:36:27.089Z,4.68
2022-10-06T06:37:15.376Z,4.17
2022-10-06T06:38:11.709Z,3.69
2022-10-06T06:38:58.774Z,4.41
2022-10-06T06:39:45.962Z,4.10
2022-10-06T06:40:32.329Z,4.44
2022-10-06T06:41:20.445Z,4.34
2022-10-06T06:42:08.379Z,4.58
2022-10-06T06:42:57.589Z,4.15
2022-10-06T06:44:00.023Z,4.25
2022-10-06T06:44:54.649Z,4.24
2022-10-06T06:45:49.741Z,4.63
2022-10-06T06:46:47.431Z,4.31
2022-10-06T06:47:36.962Z,3.65
2022-10-06T06:48:24.408Z,4.33
2022-10-06T06:49:11.967Z,4.26
2022-10-06T06:50:10.045Z,3.75
2022-10-06T06:50:58.395Z,3.59
2022-10-06T06:51:49.702Z,4.15
2022-10-06T06:52:38.407Z,3.69
2022-10-06T06:53:26.657Z,3.48
2022-10-06T06:54:16.757Z,3.60
2022-10-06T06:55:04.544Z,3.64
2022-10-06T06:55:52.299Z,4.52
2022-10-06T06:56:42.362Z,3.97
2022-10-06T06:57:30.133Z,4.13
2022-10-06T06:58:19.432Z,4.61
2022-10-06T06:59:11.303Z,4.18
2022-10-06T07:00:02.802Z,4.89
2022-10-06T07:00:50.623Z,4.32
2022-10-06T07:01:44.289Z,4.93
2022-10-06T07:02:31.888Z,4.77
2022-10-06T07:03:45.222Z,4.74
2022-10-06T07:04:28.231Z,5.25
2022-10-06T07:05:14.586Z,5.04
2022-10-06T07:06:08.787Z,4.83
2022-10-06T07:06:58.957Z,4.13
2022-10-06T07:07:51.346Z,5.02
2022-10-06T07:08:39.261Z,4.66
2022-10-06T07:09:28.317Z,4.43
2022-10-06T07:10:20.540Z,4.80
2022-10-06T07:11:10.778Z,5.18
2022-10-06T07:11:57.189Z,5.27
2022-10-06T07:12:45.944Z,4.64
2022-10-06T07:13:32.296Z,4.33
2022-10-06T07:14:18.755Z,5.17
2022-10-06T07:15:26.301Z,5.19
2022-10-06T07:16:34.513Z,5.63
2022-10-06T07:17:39.729Z,4.45
2022-10-06T07:18:44.985Z,5.02
2022-10-06T07:19:50.086Z,5.45
2022-10-06T07:20:56.127Z,4.90
2022-10-06T07:22:01.755Z,4.51
2022-10-06T07:23:07.735Z,4.97
2022-10-06T07:24:12.817Z,4.66
2022-10-06T07:25:07.192Z,4.69
2022-10-06T07:25:55.849Z,5.52
2022-10-06T07:26:42.294Z,5.11
2022-10-06T07:27:28.867Z,5.63
2022-10-06T07:28:17.059Z,5.54
2022-10-06T07:29:03.563Z,5.71
2022-10-06T07:29:55.277Z,5.27
2022-10-06T07:30:42.392Z,5.97
2022-10-06T07:31:35.039Z,6.71
2022-10-06T07:32:22.477Z,5.71
2022-10-06T07:33:09.588Z,5.80
2022-10-06T07:33:57.464Z,6.06
2022-10-06T07:35:30.316Z,6.00
2022-10-06T07:36:18.325Z,5.53
2022-10-06T07:37:06.565Z,5.18
2022-10-06T07:37:53.930Z,5.88
2022-10-06T07:38:42.460Z,5.39
2022-10-06T07:39:29.493Z,5.29
2022-10-06T07:40:16.673Z,4.97
2022-10-06T07:41:20.357Z,5.26
2022-10-06T07:42:15.378Z,5.10
2022-10-06T07:43:02.565Z,5.07
2022-10-06T07:43:53.927Z,5.04
2022-10-06T07:44:41.848Z,5.63
2022-10-06T07:45:38.285Z,4.61
2022-10-06T07:46:33.256Z,5.17
2022-10-06T07:47:24.491Z,5.07
2022-10-06T07:48:17.924Z,4.67
2022-10-06T07:49:06.342Z,4.55
2022-10-06T07:49:58.219Z,4.61
2022-10-06T07:50:49.641Z,5.03
2022-10-06T07:51:39.613Z,5.18
2022-10-06T07:52:29.919Z,5.49
2022-10-06T07:53:18.471Z,5.23
2022-10-06T07:54:10.103Z,6.02
2022-10-06T07:55:19.653Z,4.48
2022-10-06T07:56:30.006Z,5.50
2022-10-06T07:57:16.725Z,5.30
2022-10-06T07:58:03.252Z,5.29
2022-10-06T07:58:51.119Z,5.40
2022-10-06T07:59:37.534Z,5.46
2022-10-06T08:00:28.826Z,4.81
2022-10-06T08:01:16.559Z,5.27
2022-10-06T08:02:03.073Z,4.62
2022-10-06T08:02:49.805Z,4.97
2022-10-06T08:03:37.640Z,4.92
2022-10-06T08:04:23.938Z,5.05
2022-10-06T08:05:10.412Z,5.62
2022-10-06T08:05:58.073Z,4.64
2022-10-06T08:06:45.243Z,4.90
2022-10-06T08:07:31.801Z,5.15
2022-10-06T08:08:18.195Z,5.62
2022-10-06T08:09:05.728Z,4.87
2022-10-06T08:09:52.044Z,4.78
2022-10-06T08:10:38.371Z,5.11
2022-10-06T08:11:24.720Z,5.90
2022-10-06T08:12:29.805Z,5.49
2022-10-06T08:13:16.235Z,5.42
2022-10-06T08:14:02.620Z,5.18
2022-10-06T08:14:48.942Z,5.27
2022-10-06T08:15:35.304Z,6.04
2022-10-06T08:16:23.327Z,5.98
2022-10-06T08:17:09.679Z,6.12
2022-10-06T08:17:58.754Z,7.30
2022-10-06T08:18:55.323Z,6.74
2022-10-06T08:19:41.630Z,7.07
2022-10-06T08:20:28.001Z,6.84
2022-10-06T08:21:24.904Z,6.41
2022-10-06T08:22:12.478Z,4.65
2022-10-06T08:22:59.102Z,4.36
2022-10-06T08:23:47.243Z,4.52
2022-10-06T08:24:54.187Z,4.22
2022-10-06T08:25:43.776Z,3.87
2022-10-06T08:26:31.074Z,3.55
2022-10-06T08:27:17.450Z,3.49
2022-10-06T08:28:03.919Z,4.32
2022-10-06T08:28:51.994Z,4.34
2022-10-06T08:29:38.614Z,3.87
2022-10-06T08:30:27.016Z,3.97
2022-10-06T08:31:15.445Z,4.92
2022-10-06T08:32:03.024Z,4.15
2022-10-06T08:32:49.830Z,4.42
2022-10-06T08:33:38.182Z,4.37
2022-10-06T08:34:24.908Z,5.25
2022-10-06T08:35:11.388Z,5.24
2022-10-06T08:36:06.082Z,4.69
2022-10-06T08:37:15.860Z,5.35
2022-10-06T08:37:59.478Z,4.42
2022-10-06T08:38:49.854Z,4.21
2022-10-06T08:39:36.306Z,4.69
2022-10-06T08:40:23.143Z,4.65
2022-10-06T08:41:20.102Z,5.18
2022-10-06T08:42:12.511Z,5.10
2022-10-06T08:43:02.374Z,5.55
2022-10-06T08:44:07.405Z,4.89
2022-10-06T08:45:00.441Z,4.21
2022-10-06T08:45:47.757Z,4.79
2022-10-06T08:46:40.851Z,5.31
2022-10-06T08:47:30.179Z,5.36
2022-10-06T08:48:18.656Z,5.48
2022-10-06T08:49:05.663Z,5.21
2022-10-06T08:49:55.070Z,4.75
2022-10-06T08:50:53.634Z,4.88
2022-10-06T08:51:44.385Z,5.07
2022-10-06T08:52:52.003Z,5.00
2022-10-06T08:53:46.799Z,5.63
2022-10-06T08:54:53.494Z,5.33
2022-10-06T08:55:47.742Z,5.01
2022-10-06T08:56:48.433Z,5.05
2022-10-06T08:57:47.054Z,4.85
2022-10-06T08:58:46.850Z,4.76
2022-10-06T08:59:35.182Z,4.43
2022-10-06T09:00:22.398Z,5.09
2022-10-06T09:01:20.793Z,5.01
2022-10-06T09:02:27.077Z,5.22
2022-10-06T09:03:17.985Z,4.88
2022-10-06T09:04:07.843Z,5.54
2022-10-06T09:04:57.468Z,4.37
2022-10-06T09:05:45.063Z,4.90
2022-10-06T09:06:55.475Z,5.88
2022-10-06T09:07:52.050Z,5.51
2022-10-06T09:08:47.399Z,4.91
2022-10-06T09:09:53.574Z,5.34
2022-10-06T09:10:50.266Z,5.35
2022-10-06T09:11:53.618Z,5.41
2022-10-06T09:13:06.606Z,4.62
2022-10-06T09:13:57.233Z,5.05
2022-10-06T09:15:04.475Z,4.75
2022-10-06T09:15:55.851Z,4.88
2022-10-06T09:16:45.959Z,5.38
2022-10-06T09:17:36.077Z,5.10
2022-10-06T09:19:03.817Z,5.51
2022-10-06T09:19:56.009Z,5.10
2022-10-06T09:20:51.819Z,5.43
2022-10-06T09:21:45.780Z,4.52
2022-10-06T09:22:33.502Z,4.59
2022-10-06T09:23:42.491Z,4.99
2022-10-06T09:24:37.803Z,4.53
2022-10-06T09:25:28.196Z,4.51
2022-10-06T09:26:22.663Z,4.96
2022-10-06T09:27:17.764Z,4.87
2022-10-06T09:28:11.563Z,4.88
2022-10-06T09:28:58.626Z,4.56
2022-10-06T09:29:45.902Z,4.12
2022-10-06T09:30:32.209Z,4.37
2022-10-06T09:31:23.160Z,4.45
2022-10-06T09:32:11.137Z,4.04
2022-10-06T09:33:02.904Z,4.24
2022-10-06T09:34:12.802Z,4.52
2022-10-06T09:35:04.712Z,4.87
2022-10-06T09:36:09.328Z,4.92
2022-10-06T09:37:01.989Z,5.31
2022-10-06T09:37:58.591Z,4.83
2022-10-06T09:38:47.546Z,4.65
2022-10-06T09:39:38.531Z,3.93
2022-10-06T09:40:36.521Z,5.17
2022-10-06T09:41:43.994Z,4.44
2022-10-06T09:42:35.443Z,4.08
2022-10-06T09:43:28.892Z,4.70
2022-10-06T09:44:24.640Z,4.19
2022-10-06T09:45:16.836Z,4.44
2022-10-06T09:46:21.122Z,4.52
2022-10-06T09:47:22.639Z,4.66
2022-10-06T09:48:25.100Z,3.98
2022-10-06T09:49:17.472Z,4.43
2022-10-06T09:50:04.158Z,4.30
2022-10-06T09:51:09.010Z,4.26
2022-10-06T09:51:59.271Z,4.18
2022-10-06T09:52:57.900Z,4.24
2022-10-06T09:54:02.897Z,4.52
2022-10-06T09:55:04.262Z,3.74
2022-10-06T09:55:51.960Z,4.26
2022-10-06T09:56:43.325Z,4.14
2022-10-06T09:57:31.702Z,4.01
2022-10-06T09:58:23.497Z,4.00
2022-10-06T09:59:20.329Z,4.05
2022-10-06T10:00:26.685Z,3.96
2022-10-06T10:01:14.323Z,3.76
2022-10-06T10:02:01.920Z,4.07
2022-10-06T10:02:56.223Z,4.06
2022-10-06T10:04:15.585Z,3.55
2022-10-06T10:04:58.281Z,3.50
2022-10-06T10:05:49.903Z,3.07
2022-10-06T10:06:36.279Z,3.94
2022-10-06T10:07:27.044Z,3.93
2022-10-06T10:08:13.364Z,3.99
2022-10-06T10:09:23.674Z,3.95
2022-10-06T10:10:18.165Z,4.00
2022-10-06T10:11:07.514Z,4.07
2022-10-06T10:12:30.996Z,3.79
2022-10-06T10:13:26.559Z,3.58
2022-10-06T10:14:20.238Z,3.63
2022-10-06T10:15:12.489Z,3.99
2022-10-06T10:16:01.290Z,4.07
2022-10-06T10:16:53.076Z,3.88
2022-10-06T10:17:44.888Z,3.07
2022-10-06T10:18:32.143Z,2.99
2022-10-06T10:19:24.353Z,2.98
2022-10-06T10:20:37.401Z,2.98
2022-10-06T10:21:26.489Z,2.87
2022-10-06T10:22:23.259Z,3.48
2022-10-06T10:23:18.754Z,3.61
2022-10-06T10:24:18.460Z,3.77
2022-10-06T10:25:07.715Z,3.21
2022-10-06T10:26:02.719Z,3.31
2022-10-06T10:26:49.084Z,3.44
2022-10-06T10:27:38.443Z,3.61
2022-10-06T10:28:34.600Z,3.50
2022-10-06T10:29:32.830Z,3.21
2022-10-06T10:30:20.084Z,3.02
2022-10-06T10:31:17.446Z,2.91
2022-10-06T10:32:35.091Z,2.86
2022-10-06T10:33:53.966Z,2.87
2022-10-06T10:35:00.722Z,3.02
2022-10-06T10:35:52.791Z,3.19
2022-10-06T10:36:53.856Z,2.75
2022-10-06T10:37:47.864Z,3.32
2022-10-06T10:38:40.912Z,2.97
2022-10-06T10:39:33.637Z,2.71
2022-10-06T10:40:23.466Z,2.83
2022-10-06T10:41:23.986Z,2.86
2022-10-06T10:42:19.701Z,2.97
2022-10-06T10:43:12.151Z,2.71
2022-10-06T10:44:07.083Z,2.97
2022-10-06T10:44:58.876Z,3.19
2022-10-06T10:46:05.733Z,2.44
2022-10-06T10:46:56.070Z,2.60
2022-10-06T10:47:44.783Z,2.83
2022-10-06T10:48:45.512Z,3.01
2022-10-06T10:49:34.893Z,3.27
2022-10-06T10:50:21.287Z,3.18
2022-10-06T10:51:20.248Z,3.05
2022-10-06T10:52:11.890Z,3.28
2022-10-06T10:53:07.178Z,2.89
2022-10-06T10:54:02.368Z,3.05
2022-10-06T10:54:56.169Z,3.40
2022-10-06T10:55:45.403Z,2.61
2022-10-06T10:56:33.542Z,2.38
2022-10-06T10:57:22.357Z,2.82
2022-10-06T10:58:19.100Z,2.62
2022-10-06T10:59:13.146Z,2.39
2022-10-06T11:00:04.552Z,2.46
2022-10-06T11:00:55.904Z,2.56
2022-10-06T11:01:54.921Z,2.92
2022-10-06T11:02:41.508Z,2.88
2022-10-06T11:03:27.883Z,2.76
2022-10-06T11:04:14.962Z,2.91
2022-10-06T11:05:03.362Z,2.60
2022-10-06T11:06:11.089Z,3.06
2022-10-06T11:07:15.943Z,2.24
2022-10-06T11:08:29.501Z,3.07
2022-10-06T11:09:18.913Z,2.93